createdAt,value
2018-10-03T00:00:01.028Z,28.05
2018-10-03T00:00:40.112Z,23.90
2018-10-03T00:01:18.525Z,24.57
2018-10-03T00:01:58.143Z,25.62
2018-10-03T00:02:36.593Z,24.37
2018-10-03T00:03:15.487Z,24.12
2018-10-03T00:03:56.149Z,23.32
2018-10-03T00:04:34.887Z,23.60
2018-10-03T00:05:15.683Z,23.47
2018-10-03T00:05:54.380Z,23.50
2018-10-03T00:06:33.009Z,25.15
2018-10-03T00:07:11.483Z,24.40
2018-10-03T00:07:50.391Z,27.13
2018-10-03T00:08:29.866Z,23.55
2018-10-03T00:09:10.640Z,23.22
2018-10-03T00:09:49.278Z,23.00
2018-10-03T00:10:28.190Z,25.75
2018-10-03T00:11:06.793Z,23.12
2018-10-03T00:11:47.079Z,23.18
2018-10-03T00:12:25.637Z,23.12
2018-10-03T00:13:05.485Z,24.10
2018-10-03T00:13:44.181Z,24.50
2018-10-03T00:14:23.618Z,22.65
2018-10-03T00:15:03.519Z,24.85
2018-10-03T00:15:42.090Z,24.07
2018-10-03T00:16:21.111Z,24.80
2018-10-03T00:16:59.719Z,23.87
2018-10-03T00:17:39.743Z,23.85
2018-10-03T00:18:19.582Z,25.10
2018-10-03T00:18:58.187Z,24.47
2018-10-03T00:19:36.640Z,24.77
2018-10-03T00:20:15.173Z,24.72
2018-10-03T00:20:53.575Z,25.55
2018-10-03T00:21:32.446Z,24.02
2018-10-03T00:22:11.259Z,23.15
2018-10-03T00:22:49.952Z,24.47
2018-10-03T00:23:28.456Z,23.12
2018-10-03T00:24:06.834Z,23.90
2018-10-03T00:24:45.652Z,25.00
2018-10-03T00:25:24.154Z,24.32
2018-10-03T00:26:03.990Z,24.60
2018-10-03T00:26:42.378Z,23.47
2018-10-03T00:27:21.786Z,23.83
2018-10-03T00:28:00.086Z,27.02
2018-10-03T00:28:38.044Z,23.00
2018-10-03T00:29:16.057Z,24.75
2018-10-03T00:29:53.893Z,23.45
2018-10-03T00:30:31.885Z,24.00
2018-10-03T00:31:10.112Z,24.82
2018-10-03T00:31:47.916Z,25.00
2018-10-03T00:32:25.852Z,23.75
2018-10-03T00:33:03.759Z,25.15
2018-10-03T00:33:41.885Z,24.82
2018-10-03T00:34:19.854Z,24.85
2018-10-03T00:34:57.738Z,25.23
2018-10-03T00:35:35.677Z,26.40
2018-10-03T00:36:13.603Z,25.85
2018-10-03T00:36:51.488Z,26.27
2018-10-03T00:37:29.424Z,24.55
2018-10-03T00:38:07.445Z,24.00
2018-10-03T00:38:45.399Z,32.23
2018-10-03T00:39:23.351Z,25.17
2018-10-03T00:40:03.427Z,24.20
2018-10-03T00:40:41.305Z,25.20
2018-10-03T00:41:19.337Z,25.40
2018-10-03T00:41:57.476Z,26.55
2018-10-03T00:42:35.319Z,25.03
2018-10-03T00:43:13.298Z,25.77
2018-10-03T00:43:51.470Z,26.30
2018-10-03T00:44:30.032Z,28.55
2018-10-03T00:45:08.694Z,25.23
2018-10-03T00:45:46.835Z,26.23
2018-10-03T00:46:24.923Z,27.45
2018-10-03T00:47:02.892Z,28.92
2018-10-03T00:47:41.447Z,26.00
2018-10-03T00:48:19.557Z,25.85
2018-10-03T00:48:57.912Z,27.55
2018-10-03T00:49:36.196Z,26.50
2018-10-03T00:50:14.766Z,30.48
2018-10-03T00:50:53.338Z,25.30
2018-10-03T00:51:31.922Z,26.97
2018-10-03T00:52:10.422Z,27.60
2018-10-03T00:52:48.968Z,26.40
2018-10-03T00:53:27.225Z,29.25
2018-10-03T00:54:05.729Z,28.02
2018-10-03T00:54:44.155Z,30.20
2018-10-03T00:55:22.530Z,28.62
2018-10-03T00:56:02.269Z,27.02
2018-10-03T00:56:40.476Z,32.30
2018-10-03T00:57:18.594Z,27.50
2018-10-03T00:57:57.011Z,27.20
2018-10-03T00:58:35.587Z,29.32
2018-10-03T00:59:14.258Z,28.15
2018-10-03T00:59:52.497Z,27.25
2018-10-03T01:00:31.165Z,28.75
2018-10-03T01:01:09.737Z,31.12
2018-10-03T01:01:48.280Z,29.02
2018-10-03T01:02:27.655Z,26.65
2018-10-03T01:03:06.030Z,28.07
2018-10-03T01:03:44.432Z,28.90
2018-10-03T01:04:24.188Z,26.30
2018-10-03T01:05:02.420Z,28.25
2018-10-03T01:05:40.599Z,25.32
2018-10-03T01:06:18.951Z,29.67
2018-10-03T01:06:57.160Z,26.80
2018-10-03T01:07:35.025Z,26.02
2018-10-03T01:08:13.536Z,29.27
2018-10-03T01:08:51.762Z,27.60
2018-10-03T01:09:30.868Z,28.95
2018-10-03T01:10:09.225Z,30.62
2018-10-03T01:10:47.857Z,28.15
2018-10-03T01:11:25.936Z,28.85
2018-10-03T01:12:03.941Z,26.55
2018-10-03T01:12:41.855Z,27.40
2018-10-03T01:13:20.470Z,31.57
2018-10-03T01:13:58.424Z,31.33
2018-10-03T01:14:36.520Z,27.57
2018-10-03T01:15:14.503Z,26.25
2018-10-03T01:15:54.712Z,29.87
2018-10-03T01:16:33.556Z,29.72
2018-10-03T01:17:11.596Z,27.67
2018-10-03T01:17:51.548Z,27.22
2018-10-03T01:18:29.902Z,26.77
2018-10-03T01:19:09.175Z,26.37
2018-10-03T01:19:47.094Z,27.77
2018-10-03T01:20:25.290Z,30.37
2018-10-03T01:21:03.464Z,26.87
2018-10-03T01:21:44.357Z,27.65
2018-10-03T01:22:22.244Z,30.85
2018-10-03T01:23:01.162Z,28.17
2018-10-03T01:23:39.190Z,28.55
2018-10-03T01:24:17.711Z,28.40
2018-10-03T01:24:57.206Z,27.32
2018-10-03T01:25:35.848Z,28.90
2018-10-03T01:26:13.769Z,28.52
2018-10-03T01:26:51.707Z,26.97
2018-10-03T01:27:31.832Z,28.95
2018-10-03T01:28:09.780Z,27.65
2018-10-03T01:28:48.687Z,27.25
2018-10-03T01:29:26.703Z,28.67
2018-10-03T01:30:04.843Z,29.50
2018-10-03T01:30:43.119Z,28.93
2018-10-03T01:31:21.079Z,28.27
2018-10-03T01:32:00.128Z,28.23
2018-10-03T01:32:38.672Z,28.95
2018-10-03T01:33:17.985Z,29.67
2018-10-03T01:33:57.373Z,32.08
2018-10-03T01:34:36.781Z,28.40
2018-10-03T01:35:16.043Z,28.47
2018-10-03T01:35:54.414Z,27.20
2018-10-03T01:36:33.215Z,33.80
2018-10-03T01:37:11.899Z,27.70
2018-10-03T01:37:50.332Z,28.45
2018-10-03T01:38:29.002Z,29.92
2018-10-03T01:39:08.638Z,29.02
2018-10-03T01:39:47.750Z,27.35
2018-10-03T01:40:25.931Z,27.73
2018-10-03T01:41:04.637Z,30.23
2018-10-03T01:41:43.233Z,32.38
2018-10-03T01:42:21.699Z,29.40
2018-10-03T01:43:00.374Z,30.62
2018-10-03T01:43:38.979Z,27.30
2018-10-03T01:44:17.378Z,27.58
2018-10-03T01:44:55.912Z,27.98
2018-10-03T01:45:34.393Z,28.27
2018-10-03T01:46:14.446Z,28.38
2018-10-03T01:46:53.691Z,29.52
2018-10-03T01:47:32.289Z,31.85
2018-10-03T01:48:12.285Z,29.12
2018-10-03T01:48:53.584Z,29.85
2018-10-03T01:49:31.862Z,27.35
2018-10-03T01:50:10.584Z,27.58
2018-10-03T01:50:49.185Z,29.72
2018-10-03T01:51:27.644Z,29.60
2018-10-03T01:52:06.443Z,28.73
2018-10-03T01:52:45.019Z,29.60
2018-10-03T01:53:23.534Z,26.70
2018-10-03T01:54:02.085Z,32.75
2018-10-03T01:54:40.559Z,28.07
2018-10-03T01:55:19.063Z,29.95
2018-10-03T01:55:58.714Z,29.35
2018-10-03T01:56:37.358Z,29.50
2018-10-03T01:57:16.504Z,31.60
2018-10-03T01:57:56.035Z,28.52
2018-10-03T01:58:35.061Z,28.15
2018-10-03T01:59:14.432Z,29.00
2018-10-03T01:59:53.925Z,28.87
2018-10-03T02:00:32.821Z,27.40
2018-10-03T02:01:11.564Z,28.12
2018-10-03T02:01:50.373Z,29.63
2018-10-03T02:02:28.828Z,28.40
2018-10-03T02:03:08.648Z,30.25
2018-10-03T02:03:48.073Z,28.60
2018-10-03T02:04:31.956Z,37.35
2018-10-03T02:05:11.146Z,28.75
2018-10-03T02:05:51.123Z,33.08
2018-10-03T02:06:31.003Z,29.25
2018-10-03T02:07:10.398Z,28.47
2018-10-03T02:07:49.206Z,28.85
2018-10-03T02:08:27.633Z,27.35
2018-10-03T02:09:07.754Z,28.15
2018-10-03T02:09:47.406Z,29.70
2018-10-03T02:10:25.985Z,28.98
2018-10-03T02:11:04.366Z,27.85
2018-10-03T02:11:42.837Z,29.70
2018-10-03T02:12:21.897Z,30.95
2018-10-03T02:13:00.301Z,26.82
2018-10-03T02:13:39.255Z,32.53
2018-10-03T02:14:17.497Z,27.52
2018-10-03T02:14:56.475Z,31.95
2018-10-03T02:15:35.582Z,31.15
2018-10-03T02:16:14.324Z,29.77
2018-10-03T02:16:52.953Z,29.48
2018-10-03T02:17:31.710Z,34.85
2018-10-03T02:18:11.315Z,28.60
2018-10-03T02:18:50.038Z,31.00
2018-10-03T02:19:28.262Z,28.45
2018-10-03T02:20:07.961Z,32.80
2018-10-03T02:20:47.565Z,29.90
2018-10-03T02:21:26.582Z,30.25
2018-10-03T02:22:05.556Z,32.58
2018-10-03T02:22:45.450Z,28.55
2018-10-03T02:23:23.831Z,30.27
2018-10-03T02:24:03.387Z,28.57
2018-10-03T02:24:41.957Z,28.00
2018-10-03T02:25:23.827Z,28.50
2018-10-03T02:26:02.344Z,28.52
2018-10-03T02:26:42.025Z,31.07
2018-10-03T02:27:21.713Z,30.70
2018-10-03T02:28:00.423Z,31.15
2018-10-03T02:28:38.571Z,33.27
2018-10-03T02:29:16.954Z,28.85
2018-10-03T02:29:57.068Z,31.68
2018-10-03T02:30:35.333Z,27.80
2018-10-03T02:31:13.966Z,27.15
2018-10-03T02:31:53.300Z,30.43
2018-10-03T02:32:32.878Z,30.77
2018-10-03T02:33:12.240Z,30.35
2018-10-03T02:33:53.019Z,32.10
2018-10-03T02:34:31.415Z,29.40
2018-10-03T02:35:10.099Z,32.48
2018-10-03T02:35:48.582Z,29.90
2018-10-03T02:36:26.570Z,29.23
2018-10-03T02:37:05.321Z,30.37
2018-10-03T02:37:44.339Z,29.40
2018-10-03T02:38:23.171Z,30.50
2018-10-03T02:39:01.497Z,28.12
2018-10-03T02:39:40.511Z,28.00
2018-10-03T02:40:19.039Z,27.62
2018-10-03T02:40:57.248Z,30.27
2018-10-03T02:41:35.168Z,33.28
2018-10-03T02:42:13.145Z,29.20
2018-10-03T02:42:51.179Z,27.87
2018-10-03T02:43:30.156Z,30.70
2018-10-03T02:44:08.630Z,29.12
2018-10-03T02:44:47.097Z,29.23
2018-10-03T02:45:25.343Z,28.87
2018-10-03T02:46:04.431Z,29.12
2018-10-03T02:46:42.330Z,30.20
2018-10-03T02:47:20.405Z,28.75
2018-10-03T02:47:58.626Z,29.75
2018-10-03T02:48:36.686Z,35.63
2018-10-03T02:49:15.068Z,28.77
2018-10-03T02:49:53.035Z,30.17
2018-10-03T02:50:32.600Z,29.18
2018-10-03T02:51:11.613Z,31.05
2018-10-03T02:51:51.034Z,31.23
2018-10-03T02:52:30.927Z,29.35
2018-10-03T02:53:09.533Z,28.55
2018-10-03T02:53:47.689Z,29.55
2018-10-03T02:54:26.042Z,29.05
2018-10-03T02:55:04.749Z,30.12
2018-10-03T02:55:43.057Z,30.95
2018-10-03T02:56:22.021Z,29.90
2018-10-03T02:57:00.381Z,30.60
2018-10-03T02:57:38.768Z,31.73
2018-10-03T02:58:18.020Z,29.75
2018-10-03T02:58:56.733Z,30.97
2018-10-03T02:59:35.890Z,37.63
2018-10-03T03:00:14.431Z,31.17
2018-10-03T03:00:53.522Z,28.90
2018-10-03T03:01:32.939Z,31.02
2018-10-03T03:02:11.422Z,28.05
2018-10-03T03:02:50.591Z,31.95
2018-10-03T03:03:28.663Z,30.75
2018-10-03T03:04:06.873Z,32.33
2018-10-03T03:04:45.699Z,30.00
2018-10-03T03:05:23.612Z,31.82
2018-10-03T03:06:01.493Z,31.80
2018-10-03T03:06:39.535Z,29.57
2018-10-03T03:07:17.427Z,29.27
2018-10-03T03:07:56.991Z,29.25
2018-10-03T03:08:35.499Z,30.27
2018-10-03T03:09:15.709Z,30.35
2018-10-03T03:09:54.849Z,28.52
2018-10-03T03:10:33.117Z,33.08
2018-10-03T03:11:12.577Z,31.52
2018-10-03T03:11:50.968Z,32.75
2018-10-03T03:12:29.572Z,30.55
2018-10-03T03:13:08.029Z,32.08
2018-10-03T03:13:46.569Z,29.05
2018-10-03T03:14:24.902Z,29.60
2018-10-03T03:15:03.363Z,31.68
2018-10-03T03:15:41.923Z,31.62
2018-10-03T03:16:20.364Z,31.42
2018-10-03T03:17:02.925Z,30.00
2018-10-03T03:17:41.251Z,32.67
2018-10-03T03:18:19.436Z,32.20
2018-10-03T03:18:57.202Z,30.35
2018-10-03T03:19:35.508Z,30.65
2018-10-03T03:20:13.451Z,29.65
2018-10-03T03:20:52.799Z,33.63
2018-10-03T03:21:31.365Z,34.67
2018-10-03T03:22:10.398Z,28.92
2018-10-03T03:22:49.521Z,30.37
2018-10-03T03:23:28.810Z,30.35
2018-10-03T03:24:08.271Z,36.20
2018-10-03T03:24:46.607Z,28.25
2018-10-03T03:25:26.351Z,31.65
2018-10-03T03:26:04.848Z,30.57
2018-10-03T03:26:44.246Z,44.53
2018-10-03T03:27:25.838Z,28.62
2018-10-03T03:28:04.327Z,32.35
2018-10-03T03:28:42.760Z,31.97
2018-10-03T03:29:20.886Z,31.60
2018-10-03T03:30:00.445Z,29.70
2018-10-03T03:30:38.561Z,30.20
2018-10-03T03:31:16.947Z,30.10
2018-10-03T03:31:55.463Z,31.37
2018-10-03T03:32:33.673Z,30.20
2018-10-03T03:33:12.114Z,34.13
2018-10-03T03:33:53.918Z,31.05
2018-10-03T03:34:32.137Z,33.40
2018-10-03T03:35:10.497Z,36.15
2018-10-03T03:35:48.930Z,27.65
2018-10-03T03:36:26.776Z,33.80
2018-10-03T03:37:06.106Z,31.42
2018-10-03T03:37:45.180Z,30.32
2018-10-03T03:38:23.722Z,31.62
2018-10-03T03:39:03.011Z,30.45
2018-10-03T03:39:41.569Z,31.73
2018-10-03T03:40:19.746Z,31.80
2018-10-03T03:40:58.355Z,30.20
2018-10-03T03:41:36.796Z,29.57
2018-10-03T03:42:14.776Z,34.95
2018-10-03T03:42:52.962Z,30.90
2018-10-03T03:43:32.553Z,33.18
2018-10-03T03:44:11.022Z,31.85
2018-10-03T03:44:49.425Z,32.30
2018-10-03T03:45:27.723Z,31.27
2018-10-03T03:46:10.048Z,33.25
2018-10-03T03:46:47.858Z,31.90
2018-10-03T03:47:29.076Z,29.00
2018-10-03T03:48:07.140Z,29.70
2018-10-03T03:48:47.164Z,30.37
2018-10-03T03:49:25.559Z,28.52
2018-10-03T03:50:06.244Z,29.85
2018-10-03T03:50:45.511Z,29.33
2018-10-03T03:51:25.645Z,29.42
2018-10-03T03:52:03.491Z,29.85
2018-10-03T03:52:42.241Z,30.80
2018-10-03T03:53:20.189Z,30.25
2018-10-03T03:53:58.431Z,30.82
2018-10-03T03:54:36.405Z,30.20
2018-10-03T03:55:14.360Z,31.80
2018-10-03T03:55:52.571Z,32.25
2018-10-03T03:56:31.516Z,33.42
2018-10-03T03:57:10.866Z,30.72
2018-10-03T03:57:49.383Z,28.70
2018-10-03T03:58:27.373Z,34.35
2018-10-03T03:59:06.596Z,29.40
2018-10-03T03:59:44.761Z,33.53
2018-10-03T04:00:22.651Z,28.80
2018-10-03T04:01:00.661Z,31.27
2018-10-03T04:01:38.514Z,31.30
2018-10-03T04:02:16.830Z,29.92
2018-10-03T04:02:54.812Z,30.12
2018-10-03T04:03:32.707Z,31.37
2018-10-03T04:04:10.810Z,32.58
2018-10-03T04:04:50.009Z,31.60
2018-10-03T04:05:28.318Z,28.70
2018-10-03T04:06:06.348Z,29.98
2018-10-03T04:06:44.196Z,31.80
2018-10-03T04:07:22.287Z,30.80
2018-10-03T04:08:00.221Z,27.40
2018-10-03T04:08:38.302Z,29.70
2018-10-03T04:09:18.134Z,30.35
2018-10-03T04:09:56.144Z,31.17
2018-10-03T04:10:34.567Z,32.03
2018-10-03T04:11:12.441Z,29.48
2018-10-03T04:11:50.358Z,30.32
2018-10-03T04:12:28.415Z,29.50
2018-10-03T04:13:07.646Z,30.88
2018-10-03T04:13:45.717Z,30.52
2018-10-03T04:14:23.692Z,28.15
2018-10-03T04:15:01.682Z,28.42
2018-10-03T04:15:40.914Z,30.12
2018-10-03T04:16:18.839Z,30.55
2018-10-03T04:16:58.091Z,29.00
2018-10-03T04:17:35.890Z,29.65
2018-10-03T04:18:56.156Z,28.12
2018-10-03T04:19:33.996Z,28.32
2018-10-03T04:20:11.933Z,27.30
2018-10-03T04:20:50.820Z,28.42
2018-10-03T04:21:33.532Z,29.23
2018-10-03T04:22:11.365Z,32.30
2018-10-03T04:22:49.213Z,29.50
2018-10-03T04:23:27.080Z,32.55
2018-10-03T04:24:04.922Z,29.32
2018-10-03T04:24:43.526Z,29.40
2018-10-03T04:25:22.837Z,27.70
2018-10-03T04:26:03.035Z,32.50
2018-10-03T04:26:42.053Z,27.50
2018-10-03T04:27:20.573Z,28.77
2018-10-03T04:27:59.230Z,30.23
2018-10-03T04:28:37.174Z,35.90
2018-10-03T04:29:15.247Z,27.37
2018-10-03T04:29:54.104Z,29.42
2018-10-03T04:30:32.305Z,30.37
2018-10-03T04:31:10.193Z,30.70
2018-10-03T04:31:48.068Z,28.57
2018-10-03T04:32:25.935Z,28.85
2018-10-03T04:33:04.803Z,27.67
2018-10-03T04:33:43.189Z,30.65
2018-10-03T04:34:21.063Z,26.73
2018-10-03T04:35:00.082Z,29.27
2018-10-03T04:35:38.678Z,28.00
2018-10-03T04:36:17.749Z,30.30
2018-10-03T04:36:56.469Z,29.82
2018-10-03T04:37:34.468Z,31.65
2018-10-03T04:38:12.547Z,29.50
2018-10-03T04:38:50.808Z,26.65
2018-10-03T04:39:29.604Z,29.72
2018-10-03T04:40:07.475Z,28.70
2018-10-03T04:40:46.104Z,29.03
2018-10-03T04:41:24.261Z,27.17
2018-10-03T04:42:02.812Z,30.45
2018-10-03T04:42:40.844Z,31.67
2018-10-03T04:43:19.183Z,29.20
2018-10-03T04:43:57.473Z,27.17
2018-10-03T04:44:37.250Z,27.30
2018-10-03T04:45:15.441Z,26.90
2018-10-03T04:45:53.959Z,29.63
2018-10-03T04:46:32.324Z,27.20
2018-10-03T04:47:11.577Z,33.40
2018-10-03T04:47:49.712Z,28.32
2018-10-03T04:48:28.836Z,27.17
2018-10-03T04:49:07.185Z,33.15
2018-10-03T04:49:45.231Z,29.87
2018-10-03T04:50:25.032Z,27.52
2018-10-03T04:51:04.617Z,27.62
2018-10-03T04:51:43.318Z,27.20
2018-10-03T04:52:21.394Z,29.63
2018-10-03T04:52:59.558Z,28.05
2018-10-03T04:53:37.635Z,28.05
2018-10-03T04:54:16.538Z,28.67
2018-10-03T04:54:54.689Z,25.57
2018-10-03T04:55:33.114Z,26.67
2018-10-03T04:56:12.182Z,29.85
2018-10-03T04:56:53.856Z,29.82
2018-10-03T04:57:33.190Z,29.40
2018-10-03T04:58:11.800Z,27.27
2018-10-03T04:58:50.160Z,29.50
2018-10-03T04:59:29.154Z,27.67
2018-10-03T05:00:08.206Z,28.10
2018-10-03T05:00:46.734Z,27.30
2018-10-03T05:01:26.284Z,27.32
2018-10-03T05:02:05.772Z,26.82
2018-10-03T05:02:45.081Z,28.27
2018-10-03T05:03:23.325Z,29.20
2018-10-03T05:04:01.442Z,29.95
2018-10-03T05:04:40.579Z,28.23
2018-10-03T05:05:18.921Z,27.87
2018-10-03T05:05:57.376Z,26.68
2018-10-03T05:06:35.624Z,26.80
2018-10-03T05:07:14.604Z,28.65
2018-10-03T05:07:53.669Z,28.60
2018-10-03T05:08:32.148Z,26.60
2018-10-03T05:09:11.725Z,27.22
2018-10-03T05:09:50.703Z,27.37
2018-10-03T05:10:30.290Z,27.00
2018-10-03T05:11:09.037Z,26.37
2018-10-03T05:11:47.394Z,26.70
2018-10-03T05:12:25.673Z,26.33
2018-10-03T05:13:04.037Z,28.67
2018-10-03T05:13:45.220Z,28.62
2018-10-03T05:14:24.308Z,27.70
2018-10-03T05:15:03.421Z,28.47
2018-10-03T05:15:41.782Z,30.50
2018-10-03T05:16:20.602Z,26.50
2018-10-03T05:16:59.191Z,29.87
2018-10-03T05:17:38.640Z,28.23
2018-10-03T05:18:16.935Z,27.67
2018-10-03T05:18:54.850Z,26.30
2018-10-03T05:19:33.043Z,27.43
2018-10-03T05:20:12.454Z,26.33
2018-10-03T05:20:50.380Z,28.12
2018-10-03T05:21:28.311Z,28.50
2018-10-03T05:22:06.245Z,27.37
2018-10-03T05:22:44.229Z,28.70
2018-10-03T05:23:22.156Z,27.87
2018-10-03T05:24:00.024Z,26.70
2018-10-03T05:24:38.655Z,25.63
2018-10-03T05:25:17.995Z,27.00
2018-10-03T05:25:57.266Z,27.93
2018-10-03T05:26:36.015Z,27.70
2018-10-03T05:27:15.137Z,26.42
2018-10-03T05:27:53.529Z,27.90
2018-10-03T05:28:31.779Z,27.50
2018-10-03T05:29:10.760Z,28.35
2018-10-03T05:29:49.222Z,27.55
2018-10-03T05:30:27.367Z,25.82
2018-10-03T05:31:05.752Z,25.02
2018-10-03T05:31:44.622Z,26.70
2018-10-03T05:32:24.886Z,26.30
2018-10-03T05:33:02.790Z,28.73
2018-10-03T05:33:40.933Z,26.07
2018-10-03T05:34:19.079Z,28.15
2018-10-03T05:34:57.128Z,27.77
2018-10-03T05:35:35.220Z,27.60
2018-10-03T05:36:13.214Z,30.97
2018-10-03T05:36:51.102Z,26.63
2018-10-03T05:37:30.659Z,27.77
2018-10-03T05:38:09.575Z,27.30
2018-10-03T05:38:47.400Z,25.77
2018-10-03T05:39:25.364Z,30.25
2018-10-03T05:40:03.382Z,26.75
2018-10-03T05:40:41.250Z,26.33
2018-10-03T05:41:19.413Z,25.75
2018-10-03T05:41:57.566Z,26.45
2018-10-03T05:42:36.047Z,26.30
2018-10-03T05:43:14.618Z,27.07
2018-10-03T05:43:53.271Z,26.82
2018-10-03T05:44:31.418Z,28.60
2018-10-03T05:45:09.592Z,26.07
2018-10-03T05:45:47.478Z,26.12
2018-10-03T05:46:26.262Z,27.05
2018-10-03T05:47:05.113Z,26.50
2018-10-03T05:47:43.044Z,25.77
2018-10-03T05:48:22.441Z,29.82
2018-10-03T05:49:00.381Z,25.72
2018-10-03T05:49:39.773Z,31.70
2018-10-03T05:50:18.005Z,26.23
2018-10-03T05:50:57.008Z,27.45
2018-10-03T05:51:35.388Z,25.32
2018-10-03T05:52:14.372Z,26.20
2018-10-03T05:52:52.460Z,25.92
2018-10-03T05:53:30.463Z,27.60
2018-10-03T05:54:08.380Z,27.22
2018-10-03T05:54:46.552Z,26.90
2018-10-03T05:55:24.447Z,26.10
2018-10-03T05:56:02.388Z,28.12
2018-10-03T05:56:40.385Z,26.60
2018-10-03T05:57:19.505Z,26.35
2018-10-03T05:57:58.652Z,27.77
2018-10-03T05:58:39.322Z,28.23
2018-10-03T05:59:17.221Z,28.80
2018-10-03T05:59:55.034Z,26.70
2018-10-03T06:00:33.039Z,27.30
2018-10-03T06:01:11.128Z,25.77
2018-10-03T06:01:51.054Z,28.77
2018-10-03T06:02:29.466Z,30.25
2018-10-03T06:03:08.319Z,26.20
2018-10-03T06:03:49.848Z,26.33
2018-10-03T06:04:27.922Z,27.55
2018-10-03T06:05:06.747Z,28.30
2018-10-03T06:05:45.769Z,26.30
2018-10-03T06:06:23.945Z,26.70
2018-10-03T06:07:01.933Z,29.23
2018-10-03T06:07:39.793Z,27.00
2018-10-03T06:08:17.887Z,41.58
2018-10-03T06:08:56.245Z,41.73
2018-10-03T06:09:34.148Z,30.77
2018-10-03T06:10:12.156Z,31.57
2018-10-03T06:10:50.130Z,28.42
2018-10-03T06:11:28.238Z,25.10
2018-10-03T06:12:06.094Z,28.80
2018-10-03T06:12:44.007Z,27.90
2018-10-03T06:13:21.914Z,25.63
2018-10-03T06:14:00.107Z,28.43
2018-10-03T06:14:37.967Z,29.60
2018-10-03T06:15:15.799Z,26.20
2018-10-03T06:15:53.941Z,27.87
2018-10-03T06:16:32.004Z,29.00
2018-10-03T06:17:10.026Z,26.33
2018-10-03T06:17:47.977Z,28.37
2018-10-03T06:18:26.141Z,25.80
2018-10-03T06:19:04.111Z,31.23
2018-10-03T06:19:42.475Z,27.75
2018-10-03T06:20:20.383Z,26.93
2018-10-03T06:20:58.289Z,28.77
2018-10-03T06:21:36.712Z,28.62
2018-10-03T06:22:15.380Z,26.05
2018-10-03T06:22:53.437Z,27.20
2018-10-03T06:23:31.465Z,25.90
2018-10-03T06:24:09.950Z,26.93
2018-10-03T06:24:48.344Z,27.10
2018-10-03T06:25:26.292Z,28.83
2018-10-03T06:26:04.939Z,26.27
2018-10-03T06:26:43.047Z,25.60
2018-10-03T06:27:21.511Z,29.57
2018-10-03T06:28:00.779Z,26.70
2018-10-03T06:28:39.220Z,24.63
2018-10-03T06:29:18.293Z,26.50
2018-10-03T06:29:56.642Z,25.23
2018-10-03T06:30:36.345Z,28.17
2018-10-03T06:31:15.812Z,26.27
2018-10-03T06:31:55.994Z,26.07
2018-10-03T06:32:34.642Z,27.32
2018-10-03T06:33:12.936Z,25.30
2018-10-03T06:33:51.128Z,27.87
2018-10-03T06:34:29.068Z,28.20
2018-10-03T06:35:07.000Z,26.17
2018-10-03T06:35:45.308Z,25.12
2018-10-03T06:36:24.023Z,28.13
2018-10-03T06:37:03.280Z,25.57
2018-10-03T06:37:43.418Z,26.35
2018-10-03T06:38:21.672Z,26.10
2018-10-03T06:38:59.940Z,25.60
2018-10-03T06:39:38.854Z,24.30
2018-10-03T06:40:17.130Z,23.52
2018-10-03T06:40:55.338Z,25.30
2018-10-03T06:41:33.517Z,24.85
2018-10-03T06:42:11.525Z,26.55
2018-10-03T06:42:49.529Z,26.17
2018-10-03T06:43:27.802Z,27.32
2018-10-03T06:44:07.016Z,27.20
2018-10-03T06:44:46.425Z,27.53
2018-10-03T06:45:25.238Z,27.67
2018-10-03T06:46:05.043Z,25.00
2018-10-03T06:46:43.671Z,25.10
2018-10-03T06:47:21.919Z,23.87
2018-10-03T06:47:59.861Z,24.90
2018-10-03T06:48:38.514Z,24.93
2018-10-03T06:49:17.469Z,26.00
2018-10-03T06:49:55.877Z,27.52
2018-10-03T06:50:35.330Z,24.57
2018-10-03T06:51:13.968Z,23.90
2018-10-03T06:51:52.510Z,25.85
2018-10-03T06:52:30.842Z,26.00
2018-10-03T06:53:10.293Z,25.80
2018-10-03T06:53:48.554Z,26.13
2018-10-03T06:54:26.691Z,26.80
2018-10-03T06:55:05.036Z,24.82
2018-10-03T06:55:43.438Z,25.03
2018-10-03T06:56:22.714Z,26.53
2018-10-03T06:57:01.192Z,25.35
2018-10-03T06:57:46.265Z,30.60
2018-10-03T06:58:24.373Z,24.90
2018-10-03T06:59:03.884Z,26.60
2018-10-03T06:59:41.912Z,25.90
2018-10-03T07:00:20.366Z,25.50
2018-10-03T07:00:58.698Z,25.10
2018-10-03T07:01:36.584Z,24.57
2018-10-03T07:02:16.061Z,25.83
2018-10-03T07:02:55.636Z,26.67
2018-10-03T07:03:34.123Z,27.23
2018-10-03T07:04:12.328Z,24.30
2018-10-03T07:04:52.059Z,24.80
2018-10-03T07:05:30.405Z,23.70
2018-10-03T07:06:09.547Z,23.77
2018-10-03T07:06:47.998Z,24.10
2018-10-03T07:07:26.575Z,28.00
2018-10-03T07:08:05.163Z,25.08
2018-10-03T07:08:44.244Z,28.90
2018-10-03T07:09:22.725Z,24.77
2018-10-03T07:10:01.110Z,25.30
2018-10-03T07:10:39.157Z,26.40
2018-10-03T07:11:17.514Z,24.98
2018-10-03T07:11:56.738Z,26.05
2018-10-03T07:12:35.400Z,24.30
2018-10-03T07:13:13.683Z,23.80
2018-10-03T07:13:52.959Z,24.70
2018-10-03T07:14:34.183Z,27.67
2018-10-03T07:15:12.105Z,23.57
2018-10-03T07:15:51.892Z,24.13
2018-10-03T07:16:29.919Z,24.10
2018-10-03T07:17:08.329Z,23.70
2018-10-03T07:17:46.157Z,24.17
2018-10-03T07:18:24.118Z,23.83
2018-10-03T07:19:03.300Z,24.50
2018-10-03T07:19:41.713Z,23.73
2018-10-03T07:20:19.727Z,24.87
2018-10-03T07:20:59.369Z,24.93
2018-10-03T07:21:38.652Z,26.33
2018-10-03T07:22:23.686Z,24.90
2018-10-03T07:23:08.104Z,23.40
2018-10-03T07:23:46.434Z,26.07
2018-10-03T07:24:24.897Z,25.70
2018-10-03T07:25:03.645Z,24.00
2018-10-03T07:25:41.894Z,24.27
2018-10-03T07:26:21.512Z,27.63
2018-10-03T07:26:59.792Z,23.83
2018-10-03T07:27:38.308Z,25.67
2018-10-03T07:28:16.810Z,26.15
2018-10-03T07:28:55.267Z,25.65
2018-10-03T07:29:33.772Z,24.23
2018-10-03T07:30:12.950Z,25.00
2018-10-03T07:30:52.395Z,24.40
2018-10-03T07:31:30.906Z,24.50
2018-10-03T07:32:09.368Z,23.03
2018-10-03T07:32:47.881Z,23.33
2018-10-03T07:33:27.563Z,24.00
2018-10-03T07:34:08.059Z,22.77
2018-10-03T07:34:47.838Z,25.60
2018-10-03T07:35:25.956Z,25.23
2018-10-03T07:36:04.940Z,24.33
2018-10-03T07:36:43.134Z,23.97
2018-10-03T07:37:22.532Z,24.90
2018-10-03T07:38:00.691Z,22.80
2018-10-03T07:38:39.256Z,24.00
2018-10-03T07:39:17.684Z,24.17
2018-10-03T07:39:56.377Z,24.30
2018-10-03T07:40:35.731Z,24.50
2018-10-03T07:41:13.984Z,24.67
2018-10-03T07:41:52.480Z,24.20
2018-10-03T07:42:30.928Z,24.80
2018-10-03T07:43:09.437Z,25.10
2018-10-03T07:43:47.441Z,24.30
2018-10-03T07:44:26.620Z,23.50
2018-10-03T07:45:04.502Z,25.10
2018-10-03T07:45:42.769Z,24.93
2018-10-03T07:46:21.049Z,23.45
2018-10-03T07:47:00.101Z,24.50
2018-10-03T07:47:38.346Z,24.27
2018-10-03T07:48:16.628Z,24.05
2018-10-03T07:48:57.262Z,27.67
2018-10-03T07:49:35.202Z,23.40
2018-10-03T07:50:13.087Z,23.37
2018-10-03T07:50:52.061Z,23.37
2018-10-03T07:51:30.284Z,26.50
2018-10-03T07:52:09.382Z,23.77
2018-10-03T07:52:47.951Z,24.87
2018-10-03T07:53:26.550Z,26.73
2018-10-03T07:54:04.502Z,27.05
2018-10-03T07:54:42.561Z,25.00
2018-10-03T07:55:21.724Z,30.53
2018-10-03T07:55:59.862Z,23.00
2018-10-03T07:56:39.831Z,24.00
2018-10-03T07:57:18.129Z,25.30
2018-10-03T07:57:56.012Z,24.60
2018-10-03T07:58:34.400Z,25.50
2018-10-03T07:59:12.442Z,24.93
2018-10-03T07:59:50.364Z,23.57
2018-10-03T08:00:32.610Z,24.57
2018-10-03T08:01:10.675Z,23.63
2018-10-03T08:01:48.564Z,25.80
2018-10-03T08:02:28.238Z,29.80
2018-10-03T08:03:11.497Z,22.98
2018-10-03T08:03:49.691Z,26.17
2018-10-03T08:04:28.114Z,23.50
2018-10-03T08:05:06.700Z,25.17
2018-10-03T08:05:45.619Z,27.07
2018-10-03T08:06:27.194Z,28.20
2018-10-03T08:07:05.083Z,23.40
2018-10-03T08:07:43.057Z,25.07
2018-10-03T08:08:20.990Z,24.10
2018-10-03T08:08:58.991Z,24.47
2018-10-03T08:09:37.139Z,26.90
2018-10-03T08:10:16.042Z,23.37
2018-10-03T08:10:55.922Z,25.20
2018-10-03T08:11:33.984Z,25.60
2018-10-03T08:12:12.364Z,24.47
2018-10-03T08:12:53.342Z,23.60
2018-10-03T08:13:32.514Z,24.13
2018-10-03T08:14:11.246Z,23.80
2018-10-03T08:14:49.141Z,25.40
2018-10-03T08:15:27.033Z,23.80
2018-10-03T08:16:07.978Z,27.95
2018-10-03T08:16:48.472Z,24.67
2018-10-03T08:17:26.344Z,24.23
2018-10-03T08:18:04.510Z,22.90
2018-10-03T08:18:42.381Z,23.93